createdAt,value
2022-08-09T00:00:04.096Z,2.55
2022-08-09T00:01:16.352Z,4.50
2022-08-09T00:02:17.992Z,5.18
2022-08-09T00:04:05.874Z,2.53
2022-08-09T00:04:42.286Z,2.80
2022-08-09T00:06:19.116Z,3.63
2022-08-09T00:07:24.189Z,3.90
2022-08-09T00:08:32.442Z,3.30
2022-08-09T00:09:34.309Z,4.78
2022-08-09T00:10:39.210Z,3.78
2022-08-09T00:12:03.184Z,2.33
2022-08-09T00:13:01.951Z,2.97
2022-08-09T00:14:06.542Z,4.00
2022-08-09T00:15:13.869Z,3.05
2022-08-09T00:16:16.578Z,1.98
2022-08-09T00:18:06.044Z,5.63
2022-08-09T00:18:49.340Z,3.33
2022-08-09T00:19:50.684Z,4.18
2022-08-09T00:20:53.273Z,4.00
2022-08-09T00:21:57.157Z,2.58
2022-08-09T00:22:58.553Z,4.05
2022-08-09T00:24:20.077Z,4.00
2022-08-09T00:25:23.511Z,4.72
2022-08-09T00:26:33.423Z,2.42
2022-08-09T00:27:36.297Z,2.17
2022-08-09T00:28:52.534Z,4.05
2022-08-09T00:30:24.422Z,4.63
2022-08-09T00:31:57.770Z,3.60
2022-08-09T00:32:37.628Z,4.45
2022-08-09T00:33:48.965Z,2.78
2022-08-09T00:34:52.952Z,3.58
2022-08-09T00:35:55.055Z,3.33
2022-08-09T00:36:57.365Z,4.90
2022-08-09T00:38:00.205Z,3.90
2022-08-09T00:39:04.676Z,3.63
2022-08-09T00:40:12.188Z,4.47
2022-08-09T00:44:13.799Z,4.13
2022-08-09T00:44:13.998Z,2.20
2022-08-09T00:44:15.599Z,2.63
2022-08-09T00:45:24.754Z,4.32
2022-08-09T00:46:56.040Z,7.05
2022-08-09T00:47:48.290Z,3.47
2022-08-09T00:48:49.717Z,2.47
2022-08-09T00:49:56.717Z,5.28
2022-08-09T00:51:00.665Z,2.58
2022-08-09T00:52:17.665Z,5.60
2022-08-09T00:53:24.256Z,2.33
2022-08-09T00:54:31.357Z,3.92
2022-08-09T00:56:04.392Z,4.20
2022-08-09T00:56:58.174Z,3.38
2022-08-09T00:58:00.279Z,1.92
2022-08-09T00:59:01.953Z,2.70
2022-08-09T01:00:22.109Z,7.50
2022-08-09T01:01:32.405Z,4.55
2022-08-09T01:03:09.198Z,4.25
2022-08-09T01:04:30.927Z,3.03
2022-08-09T01:05:51.049Z,3.63
2022-08-09T01:07:16.444Z,2.17
2022-08-09T01:08:40.440Z,4.07
2022-08-09T01:09:56.144Z,1.65
2022-08-09T01:11:01.988Z,3.00
2022-08-09T01:12:08.449Z,3.85
2022-08-09T01:13:13.024Z,2.03
2022-08-09T01:14:35.167Z,2.55
2022-08-09T01:15:40.968Z,3.17
2022-08-09T01:16:55.449Z,4.15
2022-08-09T01:18:04.922Z,3.42
2022-08-09T01:19:16.708Z,1.98
2022-08-09T01:20:42.791Z,4.45
2022-08-09T01:21:50.929Z,3.58
2022-08-09T01:23:12.381Z,4.05
2022-08-09T01:24:52.128Z,3.33
2022-08-09T01:26:12.438Z,3.33
2022-08-09T01:27:17.816Z,1.80
2022-08-09T01:28:21.290Z,4.25
2022-08-09T01:29:41.192Z,5.18
2022-08-09T01:30:53.355Z,2.40
2022-08-09T01:32:44.118Z,2.22
2022-08-09T01:33:22.261Z,4.38
2022-08-09T01:34:24.866Z,3.10
2022-08-09T01:35:46.793Z,3.42
2022-08-09T01:36:54.958Z,3.45
2022-08-09T01:38:08.376Z,2.55
2022-08-09T01:39:13.188Z,2.75
2022-08-09T01:40:22.987Z,4.85
2022-08-09T01:41:30.581Z,4.25
2022-08-09T01:42:34.983Z,4.82
2022-08-09T01:43:50.402Z,5.18
2022-08-09T01:44:54.857Z,4.53
2022-08-09T01:45:58.107Z,2.92
2022-08-09T01:47:00.817Z,2.33
2022-08-09T01:48:06.243Z,2.00
2022-08-09T01:49:12.794Z,2.05
2022-08-09T01:50:16.586Z,2.40
2022-08-09T01:51:22.761Z,2.65
2022-08-09T01:52:25.069Z,6.07
2022-08-09T01:53:29.314Z,2.42
2022-08-09T01:54:47.333Z,5.53
2022-08-09T01:55:50.199Z,4.38
2022-08-09T01:56:52.112Z,4.68
2022-08-09T01:57:53.751Z,3.67
2022-08-09T01:58:56.461Z,2.88
2022-08-09T02:00:08.840Z,2.25
2022-08-09T02:01:57.730Z,2.63
2022-08-09T02:02:47.609Z,2.42
2022-08-09T02:03:49.542Z,3.72
2022-08-09T02:04:51.135Z,2.17
2022-08-09T02:06:04.006Z,3.40
2022-08-09T02:07:15.457Z,4.72
2022-08-09T02:08:35.462Z,1.88
2022-08-09T02:09:59.753Z,1.92
2022-08-09T02:11:03.167Z,2.78
2022-08-09T02:12:32.427Z,2.55
2022-08-09T02:13:37.578Z,2.88
2022-08-09T02:14:43.483Z,9.38
2022-08-09T02:15:49.640Z,4.88
2022-08-09T02:17:15.270Z,3.78
2022-08-09T02:18:15.381Z,4.32
2022-08-09T02:19:17.954Z,3.47
2022-08-09T02:20:25.131Z,2.03
2022-08-09T02:21:29.748Z,2.50
2022-08-09T02:22:38.129Z,2.58
2022-08-09T02:23:43.612Z,4.95
2022-08-09T02:24:51.716Z,4.90
2022-08-09T02:25:56.970Z,4.53
2022-08-09T02:27:01.792Z,5.38
2022-08-09T02:28:09.719Z,3.40
2022-08-09T02:29:22.487Z,4.13
2022-08-09T02:30:25.361Z,2.17
2022-08-09T02:31:34.009Z,2.38
2022-08-09T02:32:41.262Z,3.28
2022-08-09T02:34:07.354Z,3.45
2022-08-09T02:35:17.428Z,2.25
2022-08-09T02:36:22.138Z,2.90
2022-08-09T02:37:31.617Z,3.08
2022-08-09T02:38:47.613Z,2.53
2022-08-09T02:39:55.222Z,3.28
2022-08-09T02:41:08.720Z,3.03
2022-08-09T02:42:13.120Z,4.70
2022-08-09T02:43:14.779Z,2.40
2022-08-09T02:44:29.560Z,2.92
2022-08-09T02:45:36.886Z,3.55
2022-08-09T02:46:39.164Z,3.85
2022-08-09T02:47:46.295Z,3.55
2022-08-09T02:49:01.039Z,2.85
2022-08-09T02:50:13.128Z,4.13
2022-08-09T02:51:18.104Z,4.97
2022-08-09T02:52:22.446Z,2.20
2022-08-09T02:53:26.105Z,4.53
2022-08-09T02:54:28.340Z,5.10
2022-08-09T02:55:46.561Z,3.17
2022-08-09T02:56:57.237Z,1.75
2022-08-09T02:58:32.241Z,3.58
2022-08-09T02:59:26.596Z,3.40
2022-08-09T03:00:47.751Z,6.20
2022-08-09T03:02:06.168Z,4.00
2022-08-09T03:03:08.567Z,4.25
2022-08-09T03:04:19.358Z,3.28
2022-08-09T03:05:21.695Z,3.65
2022-08-09T03:06:25.149Z,5.13
2022-08-09T03:07:29.134Z,5.07
2022-08-09T03:08:30.817Z,7.53
2022-08-09T03:09:33.747Z,1.88
2022-08-09T03:10:36.378Z,3.83
2022-08-09T03:12:06.011Z,3.40
2022-08-09T03:13:01.362Z,3.55
2022-08-09T03:14:03.020Z,5.65
2022-08-09T03:15:05.826Z,6.20
2022-08-09T03:16:07.612Z,4.00
2022-08-09T03:17:16.536Z,3.45
2022-08-09T03:18:30.495Z,3.65
2022-08-09T03:19:57.651Z,3.55
2022-08-09T03:20:55.524Z,4.40
2022-08-09T03:21:57.877Z,4.50
2022-08-09T03:23:10.527Z,4.45
2022-08-09T03:24:31.175Z,7.20
2022-08-09T03:25:58.621Z,3.22
2022-08-09T03:27:03.627Z,4.63
2022-08-09T03:28:11.248Z,4.25
2022-08-09T03:29:13.422Z,4.22
2022-08-09T03:30:33.530Z,3.80
2022-08-09T03:31:42.703Z,2.50
2022-08-09T03:32:59.171Z,2.53
2022-08-09T03:34:02.945Z,3.47
2022-08-09T03:35:14.961Z,3.72
2022-08-09T03:36:27.748Z,3.45
2022-08-09T03:37:56.567Z,4.20
2022-08-09T03:38:51.172Z,3.97
2022-08-09T03:39:55.664Z,3.13
2022-08-09T03:40:58.325Z,5.50
2022-08-09T03:42:06.191Z,2.72
2022-08-09T03:43:08.451Z,3.17
2022-08-09T03:44:12.861Z,1.88
2022-08-09T03:45:15.439Z,3.53
2022-08-09T03:46:20.566Z,3.28
2022-08-09T03:47:28.733Z,3.30
2022-08-09T03:48:43.017Z,4.03
2022-08-09T03:49:58.159Z,3.75
2022-08-09T03:51:00.493Z,7.38
2022-08-09T03:52:03.756Z,3.17
2022-08-09T03:53:06.217Z,4.32
2022-08-09T03:54:13.935Z,2.75
2022-08-09T03:55:15.433Z,3.45
2022-08-09T03:56:19.101Z,5.40
2022-08-09T03:57:21.266Z,5.15
2022-08-09T03:58:22.965Z,3.80
2022-08-09T03:59:27.272Z,4.38
2022-08-09T04:00:29.380Z,3.47
2022-08-09T04:01:31.834Z,3.92
2022-08-09T04:02:34.450Z,4.57
2022-08-09T04:03:46.238Z,2.60
2022-08-09T04:05:00.826Z,4.35
2022-08-09T04:06:04.659Z,4.50
2022-08-09T04:07:06.437Z,2.95
2022-08-09T04:08:07.995Z,2.67
2022-08-09T04:09:15.083Z,6.97
2022-08-09T04:10:31.506Z,2.40
2022-08-09T04:11:45.673Z,3.53
2022-08-09T04:12:49.917Z,2.50
2022-08-09T04:14:36.992Z,4.85
2022-08-09T04:15:29.479Z,3.92
2022-08-09T04:16:36.375Z,4.28
2022-08-09T04:17:39.311Z,3.13
2022-08-09T04:18:43.537Z,4.15
2022-08-09T04:19:51.459Z,5.90
2022-08-09T04:20:57.443Z,2.72
2022-08-09T04:21:58.837Z,3.20
2022-08-09T04:23:00.216Z,3.58
2022-08-09T04:24:03.506Z,2.85
2022-08-09T04:25:05.634Z,6.68
2022-08-09T04:26:07.022Z,3.30
2022-08-09T04:27:08.383Z,3.88
2022-08-09T04:28:10.306Z,2.35
2022-08-09T04:29:15.683Z,4.20
2022-08-09T04:30:20.990Z,8.02
2022-08-09T04:31:26.414Z,3.20
2022-08-09T04:32:39.711Z,4.90
2022-08-09T04:33:56.632Z,6.05
2022-08-09T04:34:58.523Z,3.42
2022-08-09T04:36:02.793Z,4.30
2022-08-09T04:37:04.488Z,5.22
2022-08-09T04:38:06.234Z,4.18
2022-08-09T04:39:10.439Z,4.78
2022-08-09T04:40:28.824Z,4.15
2022-08-09T04:41:43.388Z,2.80
2022-08-09T04:42:45.361Z,3.78
2022-08-09T04:44:05.078Z,5.93
2022-08-09T04:45:09.043Z,5.10
2022-08-09T04:46:56.735Z,7.68
2022-08-09T04:47:44.975Z,6.50
2022-08-09T04:48:57.426Z,7.45
2022-08-09T04:49:59.734Z,7.28
2022-08-09T04:51:01.737Z,6.22
2022-08-09T04:52:06.004Z,4.60
2022-08-09T04:53:13.320Z,9.38
2022-08-09T04:54:15.006Z,5.95
2022-08-09T04:55:17.333Z,6.00
2022-08-09T04:56:20.923Z,4.15
2022-08-09T04:57:58.334Z,4.65
2022-08-09T04:58:50.879Z,4.78
2022-08-09T04:59:53.399Z,6.15
2022-08-09T05:00:55.425Z,5.10
2022-08-09T05:01:56.798Z,5.43
2022-08-09T05:02:59.169Z,4.38
2022-08-09T05:04:22.207Z,6.28
2022-08-09T05:05:52.508Z,9.55
2022-08-09T05:06:53.637Z,6.03
2022-08-09T05:07:58.106Z,4.25
2022-08-09T05:09:00.583Z,3.95
2022-08-09T05:10:02.887Z,4.35
2022-08-09T05:11:07.754Z,5.55
2022-08-09T05:12:09.447Z,3.30
2022-08-09T05:13:14.217Z,3.78
2022-08-09T05:14:15.829Z,5.65
2022-08-09T05:15:38.560Z,3.58
2022-08-09T05:16:58.197Z,5.88
2022-08-09T05:18:39.559Z,4.15
2022-08-09T05:19:25.778Z,7.88
2022-08-09T05:20:29.969Z,3.25
2022-08-09T05:21:36.512Z,5.10
2022-08-09T05:23:55.576Z,4.15
2022-08-09T05:24:11.782Z,5.85
2022-08-09T05:25:15.143Z,4.30
2022-08-09T05:26:26.548Z,6.35
2022-08-09T05:27:45.394Z,3.88
2022-08-09T05:28:49.432Z,7.95
2022-08-09T05:29:53.527Z,3.72
2022-08-09T05:30:55.646Z,4.90
2022-08-09T05:32:00.184Z,3.38
2022-08-09T05:33:01.938Z,7.65
2022-08-09T05:34:03.464Z,4.25
2022-08-09T05:35:05.778Z,5.43
2022-08-09T05:36:07.229Z,5.53
2022-08-09T05:37:11.438Z,5.55
2022-08-09T05:38:13.002Z,7.55
2022-08-09T05:39:28.999Z,5.90
2022-08-09T05:40:31.321Z,5.32
2022-08-09T05:41:32.795Z,7.00
2022-08-09T05:42:34.499Z,7.65
2022-08-09T05:43:36.335Z,9.07
2022-08-09T05:44:37.678Z,5.53
2022-08-09T05:45:43.510Z,7.72
2022-08-09T05:46:54.410Z,16.45
2022-08-09T05:48:01.329Z,13.55
2022-08-09T05:49:02.931Z,15.90
2022-08-09T05:50:25.156Z,19.60
2022-08-09T05:51:42.951Z,32.35
2022-08-09T05:52:53.429Z,24.77
2022-08-09T05:53:57.657Z,19.33
2022-08-09T05:55:06.761Z,14.75
2022-08-09T05:56:08.671Z,16.55
2022-08-09T05:57:12.704Z,21.92
2022-08-09T05:58:18.478Z,10.50
2022-08-09T05:59:21.831Z,4.55
2022-08-09T06:00:23.448Z,9.10
2022-08-09T06:01:25.249Z,5.47
2022-08-09T06:02:35.485Z,5.80
2022-08-09T06:03:44.319Z,6.47
2022-08-09T06:04:58.582Z,10.48
2022-08-09T06:06:04.569Z,7.30
2022-08-09T06:07:07.421Z,6.63
2022-08-09T06:08:11.374Z,9.32
2022-08-09T06:09:23.084Z,6.57
2022-08-09T06:10:40.242Z,8.68
2022-08-09T06:11:56.699Z,10.38
2022-08-09T06:13:03.081Z,8.77
2022-08-09T06:14:19.915Z,8.00
2022-08-09T06:15:21.278Z,8.05
2022-08-09T06:16:23.363Z,5.32
2022-08-09T06:17:24.932Z,8.48
2022-08-09T06:18:26.249Z,10.93
2022-08-09T06:19:27.847Z,5.95
2022-08-09T06:20:29.340Z,5.65
2022-08-09T06:21:31.844Z,7.00
2022-08-09T06:22:33.440Z,6.35
2022-08-09T06:23:57.433Z,7.22
2022-08-09T06:24:56.498Z,9.55
2022-08-09T06:25:57.941Z,8.13
2022-08-09T06:26:59.271Z,7.10
2022-08-09T06:28:00.602Z,6.57
2022-08-09T06:29:05.161Z,7.43
2022-08-09T06:30:09.953Z,8.38
2022-08-09T06:31:11.575Z,6.43
2022-08-09T06:32:53.274Z,9.35
2022-08-09T06:33:40.018Z,7.57
2022-08-09T06:34:43.189Z,5.30
2022-08-09T06:36:03.765Z,5.75
2022-08-09T06:37:10.192Z,6.00
2022-08-09T06:38:11.697Z,8.98
2022-08-09T06:39:17.301Z,5.47
2022-08-09T06:40:23.986Z,5.90
2022-08-09T06:41:55.874Z,4.25
2022-08-09T06:42:50.234Z,4.60
2022-08-09T06:43:53.115Z,9.10
2022-08-09T06:44:55.292Z,10.38
2022-08-09T06:46:06.283Z,8.80
2022-08-09T06:47:13.047Z,6.63
2022-08-09T06:48:16.799Z,8.52
2022-08-09T06:50:11.852Z,11.75
2022-08-09T06:50:53.421Z,4.78
2022-08-09T06:51:54.818Z,8.23
2022-08-09T06:52:57.249Z,11.25
2022-08-09T06:54:00.928Z,11.85
2022-08-09T06:55:06.655Z,9.20
2022-08-09T06:56:14.274Z,6.13
2022-08-09T06:57:16.155Z,8.68
2022-08-09T07:00:53.011Z,9.65
2022-08-09T07:00:54.832Z,6.15
2022-08-09T07:01:00.488Z,8.00
2022-08-09T07:02:04.487Z,8.52
2022-08-09T07:03:06.396Z,8.60
2022-08-09T07:04:07.845Z,10.05
2022-08-09T07:05:11.858Z,7.22
2022-08-09T07:06:13.753Z,15.95
2022-08-09T07:07:59.034Z,13.07
2022-08-09T07:08:39.514Z,16.15
2022-08-09T07:09:54.269Z,14.25
2022-08-09T07:11:03.339Z,16.58
2022-08-09T07:12:05.290Z,13.18
2022-08-09T07:13:18.808Z,13.38
2022-08-09T07:14:28.111Z,7.78
2022-08-09T07:16:35.130Z,6.35
2022-08-09T07:16:57.689Z,7.68
2022-08-09T07:18:02.267Z,5.15
2022-08-09T07:19:04.396Z,7.05
2022-08-09T07:20:06.077Z,9.52
2022-08-09T07:21:10.137Z,10.13
2022-08-09T07:22:11.792Z,5.53
2022-08-09T07:23:19.246Z,11.55
2022-08-09T07:24:21.184Z,7.50
2022-08-09T07:25:33.315Z,8.45
2022-08-09T07:26:44.187Z,6.88
2022-08-09T07:27:53.515Z,6.32
2022-08-09T07:29:08.898Z,5.38
2022-08-09T07:30:14.251Z,8.45
2022-08-09T07:31:15.570Z,10.43
2022-08-09T07:32:17.509Z,3.63
2022-08-09T07:33:18.839Z,8.00
2022-08-09T07:34:21.650Z,9.30
2022-08-09T07:35:27.082Z,10.20
2022-08-09T07:36:32.372Z,6.45
2022-08-09T07:37:43.670Z,6.03
2022-08-09T07:38:52.566Z,5.95
2022-08-09T07:39:59.687Z,5.38
2022-08-09T07:41:11.871Z,7.03
2022-08-09T07:42:14.814Z,5.80
2022-08-09T07:43:16.826Z,6.45
2022-08-09T07:44:18.451Z,5.85
2022-08-09T07:45:38.263Z,6.35
2022-08-09T07:46:41.850Z,6.07
2022-08-09T07:48:00.757Z,7.45
2022-08-09T07:49:05.819Z,9.05
2022-08-09T07:50:09.856Z,4.22
2022-08-09T07:52:05.174Z,5.53
2022-08-09T07:52:33.082Z,6.60
2022-08-09T07:54:04.356Z,3.80
2022-08-09T07:55:00.596Z,5.20
2022-08-09T07:56:06.266Z,4.32
2022-08-09T07:57:11.731Z,6.13
2022-08-09T07:58:14.125Z,2.08
2022-08-09T07:59:25.244Z,9.05
2022-08-09T08:00:36.429Z,3.92
2022-08-09T08:01:38.227Z,5.88
2022-08-09T08:02:42.285Z,6.00
2022-08-09T08:03:44.275Z,6.65
2022-08-09T08:04:48.719Z,3.72
2022-08-09T08:05:53.882Z,3.38
2022-08-09T08:07:00.023Z,3.58
2022-08-09T08:09:00.056Z,4.90
2022-08-09T08:09:41.137Z,5.15
2022-08-09T08:11:03.070Z,3.88
2022-08-09T08:12:10.048Z,3.25
2022-08-09T08:13:13.230Z,7.10
2022-08-09T08:14:15.964Z,7.07
2022-08-09T08:15:24.000Z,4.75
2022-08-09T08:16:31.494Z,6.07
2022-08-09T08:17:54.198Z,4.70
2022-08-09T08:18:55.204Z,5.53
2022-08-09T08:19:57.140Z,5.68
2022-08-09T08:20:59.403Z,4.50
2022-08-09T08:22:00.745Z,3.33
2022-08-09T08:23:16.376Z,7.68
2022-08-09T08:24:18.903Z,4.45
2022-08-09T08:25:20.815Z,7.13
2022-08-09T08:26:41.709Z,7.75
2022-08-09T08:27:43.525Z,3.72
2022-08-09T08:28:45.010Z,3.33
2022-08-09T08:29:50.410Z,5.78
2022-08-09T08:30:53.911Z,3.97
2022-08-09T08:32:03.401Z,6.32
2022-08-09T08:33:05.988Z,4.03
2022-08-09T08:34:14.067Z,3.70
2022-08-09T08:35:18.131Z,6.25
2022-08-09T08:36:22.443Z,6.10
2022-08-09T08:37:41.441Z,4.10
2022-08-09T08:38:52.020Z,5.15
2022-08-09T08:39:54.523Z,6.18
2022-08-09T08:40:57.174Z,6.75
2022-08-09T08:41:59.075Z,3.05
2022-08-09T08:43:02.012Z,4.63
2022-08-09T08:44:04.046Z,5.28
2022-08-09T08:45:11.845Z,6.03
2022-08-09T08:46:33.624Z,5.28
2022-08-09T08:47:42.795Z,5.68
2022-08-09T08:48:51.940Z,6.10
2022-08-09T08:49:56.182Z,3.55
2022-08-09T08:51:04.273Z,4.53
2022-08-09T08:52:10.347Z,6.03
2022-08-09T08:53:16.054Z,4.07
2022-08-09T08:54:29.833Z,3.67
2022-08-09T08:55:32.329Z,6.43
2022-08-09T08:56:35.448Z,4.22
2022-08-09T08:57:37.660Z,3.63
2022-08-09T08:58:46.369Z,4.85
2022-08-09T08:59:49.141Z,8.70
2022-08-09T09:00:57.211Z,4.30
2022-08-09T09:01:59.684Z,3.65
2022-08-09T09:03:11.325Z,4.82
2022-08-09T09:04:18.610Z,5.28
2022-08-09T09:05:57.534Z,4.75
2022-08-09T09:06:51.598Z,4.38
2022-08-09T09:07:53.407Z,6.25
2022-08-09T09:08:59.653Z,3.35
2022-08-09T09:10:05.053Z,5.13
2022-08-09T09:11:13.621Z,6.18
2022-08-09T09:12:20.156Z,3.53
2022-08-09T09:13:23.682Z,2.78
2022-08-09T09:14:36.014Z,4.53
2022-08-09T09:15:38.698Z,4.28
2022-08-09T09:16:41.647Z,3.03
2022-08-09T09:17:49.392Z,4.55
2022-08-09T09:19:15.695Z,3.63
2022-08-09T09:20:16.957Z,4.78
2022-08-09T09:21:25.929Z,4.72
2022-08-09T09:22:28.933Z,3.15
2022-08-09T09:23:42.160Z,3.78
2022-08-09T09:24:54.538Z,3.38
2022-08-09T09:26:12.018Z,4.32
2022-08-09T09:28:03.196Z,4.68
2022-08-09T09:29:02.275Z,4.72
2022-08-09T09:30:15.843Z,3.65
2022-08-09T09:32:05.774Z,6.68
2022-08-09T09:33:02.762Z,4.90
2022-08-09T09:34:18.509Z,4.97
2022-08-09T09:35:20.025Z,3.70
2022-08-09T09:36:22.693Z,2.10
2022-08-09T09:37:31.925Z,2.95
2022-08-09T09:38:46.291Z,2.72
2022-08-09T09:39:57.804Z,2.65
2022-08-09T09:41:02.146Z,1.98
2022-08-09T09:42:10.722Z,4.72
2022-08-09T09:43:20.388Z,2.35
2022-08-09T09:44:27.731Z,2.17
2022-08-09T09:45:30.904Z,4.65
2022-08-09T09:46:43.394Z,3.75
2022-08-09T09:47:58.547Z,3.75
2022-08-09T09:49:03.148Z,2.88
2022-08-09T09:50:14.519Z,4.18
2022-08-09T09:51:38.023Z,4.20
2022-08-09T09:52:53.474Z,4.22
2022-08-09T09:54:10.559Z,2.55
2022-08-09T09:55:32.356Z,4.20
2022-08-09T09:56:35.876Z,3.45
2022-08-09T09:58:04.373Z,5.60
2022-08-09T09:58:58.785Z,2.90
2022-08-09T10:00:02.608Z,1.88
2022-08-09T10:01:31.013Z,6.03
2022-08-09T10:02:47.224Z,2.40
2022-08-09T10:03:57.930Z,1.98
2022-08-09T10:05:06.570Z,1.63
2022-08-09T10:06:08.831Z,2.55
2022-08-09T10:07:26.749Z,3.53
2022-08-09T10:08:31.984Z,3.83
2022-08-09T10:09:48.759Z,4.97
2022-08-09T10:10:50.837Z,5.00
2022-08-09T10:12:04.405Z,4.22
2022-08-09T10:13:14.082Z,2.03
2022-08-09T10:14:35.396Z,2.47
2022-08-09T10:16:09.635Z,2.53
2022-08-09T10:17:39.004Z,2.20
2022-08-09T10:18:33.479Z,2.70
2022-08-09T10:19:36.141Z,1.85
2022-08-09T10:20:45.195Z,2.10
2022-08-09T10:21:48.690Z,6.22
2022-08-09T10:22:58.513Z,3.78
2022-08-09T10:24:04.466Z,1.77
2022-08-09T10:25:11.958Z,5.13
2022-08-09T10:26:16.265Z,1.58
2022-08-09T10:27:24.739Z,4.07
2022-08-09T10:28:30.965Z,4.80
2022-08-09T10:30:29.980Z,3.17
2022-08-09T10:34:07.802Z,5.70
2022-08-09T10:34:59.039Z,4.07
2022-08-09T10:36:01.232Z,3.53
2022-08-09T10:37:03.643Z,4.75
2022-08-09T10:38:33.731Z,3.35
2022-08-09T10:39:40.520Z,2.95
2022-08-09T10:40:44.775Z,4.43
2022-08-09T10:41:52.064Z,2.95
2022-08-09T10:42:53.593Z,4.47
2022-08-09T10:43:59.363Z,1.92
2022-08-09T10:45:04.954Z,2.50
2022-08-09T10:46:32.059Z,4.43
2022-08-09T10:48:19.221Z,1.55
2022-08-09T10:49:03.811Z,5.95
2022-08-09T10:50:17.161Z,2.53
2022-08-09T10:51:41.241Z,3.33
2022-08-09T10:52:52.358Z,2.35
2022-08-09T10:53:56.512Z,5.70
2022-08-09T10:55:02.224Z,3.20
2022-08-09T10:56:23.904Z,2.20
2022-08-09T10:57:34.357Z,3.38
2022-08-09T10:58:38.945Z,5.05
2022-08-09T10:59:58.194Z,5.68
2022-08-09T11:03:12.032Z,3.45
2022-08-09T11:03:14.819Z,1.98
2022-08-09T11:04:19.915Z,2.72
2022-08-09T11:05:31.276Z,2.58
2022-08-09T11:06:34.849Z,3.25
2022-08-09T11:07:58.469Z,3.08
2022-08-09T11:09:15.996Z,2.33
2022-08-09T11:10:37.565Z,2.25
2022-08-09T11:11:58.574Z,1.67
2022-08-09T11:13:53.950Z,3.67
2022-08-09T11:14:56.248Z,2.53
2022-08-09T11:16:34.980Z,3.05
2022-08-09T11:17:41.873Z,3.35
2022-08-09T11:18:45.045Z,1.83
2022-08-09T11:20:11.089Z,1.75
2022-08-09T11:21:37.384Z,4.10
2022-08-09T11:22:43.292Z,1.80
2022-08-09T11:23:58.858Z,4.00
2022-08-09T11:25:15.425Z,2.63
2022-08-09T11:26:35.503Z,3.22
2022-08-09T11:28:04.976Z,1.50
2022-08-09T11:29:05.639Z,3.45
2022-08-09T11:30:32.044Z,3.38
2022-08-09T11:31:38.987Z,2.45
2022-08-09T11:32:45.007Z,3.05
2022-08-09T11:33:51.194Z,1.52
2022-08-09T11:34:52.956Z,1.42
2022-08-09T11:35:57.274Z,2.17
2022-08-09T11:36:59.207Z,2.85
2022-08-09T11:38:14.293Z,2.28
2022-08-09T11:39:16.688Z,2.00
2022-08-09T11:40:24.182Z,3.20
2022-08-09T11:41:37.973Z,4.10
2022-08-09T11:42:43.463Z,4.65
2022-08-09T11:43:48.511Z,2.08
2022-08-09T11:44:50.071Z,3.83
2022-08-09T11:45:59.455Z,1.77
2022-08-09T11:47:01.228Z,3.90
2022-08-09T11:48:25.087Z,3.72
2022-08-09T11:50:52.613Z,2.92
2022-08-09T11:51:21.342Z,3.35
2022-08-09T11:53:03.028Z,4.90
2022-08-09T11:54:13.748Z,2.67
2022-08-09T11:55:52.708Z,2.63
2022-08-09T11:57:15.714Z,2.13
2022-08-09T11:58:19.948Z,3.33
2022-08-09T11:59:34.367Z,4.72
2022-08-09T12:00:47.617Z,4.22
2022-08-09T12:02:16.318Z,2.60
2022-08-09T12:03:54.731Z,2.50
2022-08-09T12:04:38.352Z,5.70
2022-08-09T12:05:42.269Z,2.78
2022-08-09T12:06:55.522Z,3.05
2022-08-09T12:07:58.307Z,3.10
2022-08-09T12:09:01.319Z,1.40
2022-08-09T12:10:03.117Z,1.75
2022-08-09T12:11:04.622Z,4.78
2022-08-09T12:12:20.219Z,3.17
2022-08-09T12:14:08.295Z,2.83
2022-08-09T12:15:07.658Z,4.95
2022-08-09T12:16:37.161Z,2.15
2022-08-09T12:17:43.007Z,2.78
2022-08-09T12:18:49.055Z,3.05
2022-08-09T12:19:59.527Z,2.55
2022-08-09T12:21:02.763Z,2.78
2022-08-09T12:22:05.036Z,2.50
2022-08-09T12:23:06.417Z,3.03
2022-08-09T12:24:10.144Z,2.55
2022-08-09T12:25:14.765Z,3.70
2022-08-09T12:26:19.734Z,2.40
2022-08-09T12:29:00.216Z,2.25
2022-08-09T12:29:14.625Z,1.98
2022-08-09T12:30:36.665Z,2.50
2022-08-09T12:32:01.667Z,5.38
2022-08-09T12:33:04.445Z,4.10
2022-08-09T12:34:05.937Z,3.75
2022-08-09T12:35:10.879Z,3.40
2022-08-09T12:36:27.353Z,3.92
2022-08-09T12:37:33.790Z,1.52
2022-08-09T12:38:53.227Z,6.07
2022-08-09T12:40:02.136Z,2.10
2022-08-09T12:41:03.688Z,2.00
2022-08-09T12:42:11.222Z,2.97
2022-08-09T12:44:04.305Z,3.90
2022-08-09T12:44:52.030Z,2.97
2022-08-09T12:45:59.615Z,3.60
2022-08-09T12:47:02.194Z,7.28
2022-08-09T12:48:10.716Z,2.72
2022-08-09T12:49:23.097Z,1.73
2022-08-09T12:50:25.147Z,2.53
2022-08-09T12:51:52.358Z,2.85
2022-08-09T12:53:08.025Z,2.95
2022-08-09T12:54:10.485Z,6.00
2022-08-09T12:56:15.778Z,3.53
2022-08-09T12:56:51.437Z,2.35
2022-08-09T12:57:55.646Z,3.05
2022-08-09T12:59:10.302Z,2.35
2022-08-09T13:00:19.126Z,2.28
2022-08-09T13:01:28.391Z,1.90
2022-08-09T13:02:31.726Z,3.05
2022-08-09T13:03:53.315Z,2.78
2022-08-09T13:05:02.452Z,3.20
2022-08-09T13:06:16.179Z,3.03
2022-08-09T13:07:28.742Z,1.67
2022-08-09T13:08:56.786Z,5.18
2022-08-09T13:10:01.931Z,2.20
2022-08-09T13:11:23.219Z,3.00
2022-08-09T13:12:25.413Z,2.65
2022-08-09T13:13:38.289Z,1.38
2022-08-09T13:15:07.214Z,3.08
2022-08-09T13:16:10.081Z,2.25
2022-08-09T13:17:43.830Z,1.48
2022-08-09T13:18:42.882Z,2.65
2022-08-09T13:20:08.802Z,2.25
2022-08-09T13:22:38.123Z,3.67
2022-08-09T13:23:01.804Z,2.60
2022-08-09T13:24:33.078Z,4.35
2022-08-09T13:25:42.088Z,2.90
2022-08-09T13:26:49.973Z,2.42
2022-08-09T13:27:55.651Z,2.40
2022-08-09T13:29:17.806Z,2.33
2022-08-09T13:30:50.225Z,5.50
2022-08-09T13:32:16.053Z,2.17
2022-08-09T13:33:23.577Z,1.75
2022-08-09T13:34:25.685Z,3.92
2022-08-09T13:35:34.850Z,2.13
2022-08-09T13:36:53.539Z,1.40
2022-08-09T13:37:55.596Z,1.45
2022-08-09T13:39:00.966Z,3.70
2022-08-09T13:41:50.897Z,3.30
2022-08-09T13:41:57.836Z,5.18
2022-08-09T13:42:49.888Z,3.58
2022-08-09T13:43:53.231Z,1.88
2022-08-09T13:44:54.615Z,1.77
2022-08-09T13:46:44.752Z,4.28
2022-08-09T13:47:33.879Z,2.35
2022-08-09T13:48:38.921Z,1.13
2022-08-09T13:49:57.360Z,1.92
2022-08-09T13:51:02.526Z,1.10
2022-08-09T13:52:04.710Z,2.25
2022-08-09T13:53:10.662Z,2.58
2022-08-09T13:54:13.433Z,4.05
2022-08-09T13:55:15.314Z,3.15
2022-08-09T13:56:19.179Z,1.55
2022-08-09T13:57:36.353Z,3.05
2022-08-09T13:58:40.547Z,1.80
2022-08-09T13:59:43.314Z,2.13
2022-08-09T14:00:49.909Z,1.95
2022-08-09T14:01:56.637Z,2.28
2022-08-09T14:04:02.546Z,2.35
2022-08-09T14:04:24.457Z,2.03
2022-08-09T14:05:56.421Z,5.20
2022-08-09T14:07:00.472Z,1.90
2022-08-09T14:08:05.645Z,2.03
2022-08-09T14:09:07.825Z,2.80
2022-08-09T14:10:17.529Z,2.55
2022-08-09T14:11:32.180Z,2.88
2022-08-09T14:12:42.762Z,6.32
2022-08-09T14:14:24.720Z,1.75
2022-08-09T14:16:06.673Z,2.25
2022-08-09T14:16:29.110Z,2.83
2022-08-09T14:17:32.588Z,2.65
2022-08-09T14:18:52.615Z,4.43
2022-08-09T14:19:55.296Z,5.40
2022-08-09T14:20:57.054Z,2.00
2022-08-09T14:21:58.566Z,5.22
2022-08-09T14:23:00.039Z,2.78
2022-08-09T14:24:10.181Z,3.28
2022-08-09T14:25:12.058Z,2.20
2022-08-09T14:26:14.288Z,5.18
2022-08-09T14:27:20.415Z,2.63
2022-08-09T14:28:22.139Z,4.78
2022-08-09T14:30:34.967Z,1.85
2022-08-09T14:30:49.847Z,2.28
2022-08-09T14:31:53.532Z,3.25
2022-08-09T14:32:55.745Z,2.78
2022-08-09T14:33:59.168Z,3.50
2022-08-09T14:35:06.405Z,2.75
2022-08-09T14:36:20.717Z,5.03
2022-08-09T14:37:28.331Z,2.50
2022-08-09T14:38:30.052Z,2.58
2022-08-09T14:39:39.901Z,2.50
2022-08-09T14:41:04.241Z,2.30
2022-08-09T14:42:09.092Z,2.92
2022-08-09T14:43:10.535Z,3.03
2022-08-09T14:44:20.069Z,2.47
2022-08-09T14:46:54.700Z,3.50
2022-08-09T14:47:29.020Z,1.77
2022-08-09T14:48:26.755Z,3.83
2022-08-09T14:49:28.888Z,3.72
2022-08-09T14:50:37.014Z,1.90
2022-08-09T14:51:42.199Z,3.05
2022-08-09T14:52:50.020Z,1.48
2022-08-09T14:53:52.676Z,5.47
2022-08-09T14:54:54.145Z,1.80
2022-08-09T14:55:55.651Z,2.78
2022-08-09T14:56:57.720Z,3.10
2022-08-09T14:58:01.098Z,3.00
2022-08-09T14:59:04.750Z,2.00
2022-08-09T15:00:10.384Z,3.13
2022-08-09T15:01:12.554Z,1.25
2022-08-09T15:02:14.206Z,3.28
2022-08-09T15:03:19.983Z,1.98
2022-08-09T15:04:23.592Z,6.93
2022-08-09T15:05:25.182Z,3.80
2022-08-09T15:06:26.540Z,1.35
2022-08-09T15:07:31.358Z,1.98
2022-08-09T15:08:36.930Z,3.60
2022-08-09T15:10:04.824Z,2.97
2022-08-09T15:11:07.319Z,1.88
2022-08-09T15:12:09.552Z,1.52
2022-08-09T15:13:15.841Z,2.83
2022-08-09T15:14:18.294Z,2.60
2022-08-09T15:15:21.276Z,3.85
2022-08-09T15:16:22.655Z,1.33
2022-08-09T15:17:24.122Z,4.00
2022-08-09T15:18:26.771Z,1.77
2022-08-09T15:19:30.424Z,2.70
2022-08-09T15:21:56.427Z,1.85
2022-08-09T15:22:02.415Z,2.38
2022-08-09T15:24:00.752Z,2.20
2022-08-09T15:24:28.340Z,2.00
2022-08-09T15:25:39.079Z,1.40
2022-08-09T15:26:45.980Z,2.13